sensor_id;sensor_type;location;lat;lon;timestamp;P1;durP1;ratioP1;P2;durP2;ratioP2
20621;SDS011;10470;42.670;23.354;2022-09-28T00:00:06;15.13;;;10.20;;
20621;SDS011;10470;42.670;23.354;2022-09-28T00:02:32;15.77;;;10.83;;
20621;SDS011;10470;42.670;23.354;2022-09-28T00:05:01;17.87;;;10.43;;
20621;SDS011;10470;42.670;23.354;2022-09-28T00:07:28;14.53;;;10.23;;
20621;SDS011;10470;42.670;23.354;2022-09-28T00:09:54;16.40;;;10.50;;
20621;SDS011;10470;42.670;23.354;2022-09-28T00:12:20;14.67;;;10.07;;
20621;SDS011;10470;42.670;23.354;2022-09-28T00:14:47;12.73;;;9.23;;
20621;SDS011;10470;42.670;23.354;2022-09-28T00:17:16;13.93;;;9.37;;
20621;SDS011;10470;42.670;23.354;2022-09-28T00:19:48;13.07;;;9.60;;
20621;SDS011;10470;42.670;23.354;2022-09-28T00:22:16;16.23;;;9.97;;
20621;SDS011;10470;42.670;23.354;2022-09-28T00:24:42;14.43;;;9.10;;
20621;SDS011;10470;42.670;23.354;2022-09-28T00:27:09;10.47;;;8.17;;
20621;SDS011;10470;42.670;23.354;2022-09-28T00:29:35;10.73;;;8.50;;
20621;SDS011;10470;42.670;23.354;2022-09-28T00:32:03;14.13;;;8.17;;
20621;SDS011;10470;42.670;23.354;2022-09-28T00:34:41;12.80;;;8.23;;
20621;SDS011;10470;42.670;23.354;2022-09-28T00:37:13;10.10;;;7.80;;
20621;SDS011;10470;42.670;23.354;2022-09-28T00:39:39;10.13;;;7.87;;
20621;SDS011;10470;42.670;23.354;2022-09-28T00:42:11;9.87;;;7.70;;
20621;SDS011;10470;42.670;23.354;2022-09-28T00:44:41;10.67;;;7.90;;
20621;SDS011;10470;42.670;23.354;2022-09-28T00:47:21;9.83;;;8.00;;
20621;SDS011;10470;42.670;23.354;2022-09-28T00:52:35;10.57;;;7.57;;
20621;SDS011;10470;42.670;23.354;2022-09-28T00:55:13;11.43;;;7.10;;
20621;SDS011;10470;42.670;23.354;2022-09-28T00:57:48;13.33;;;7.37;;
20621;SDS011;10470;42.670;23.354;2022-09-28T01:00:18;13.37;;;7.83;;
20621;SDS011;10470;42.670;23.354;2022-09-28T01:02:46;9.50;;;6.90;;
20621;SDS011;10470;42.670;23.354;2022-09-28T01:05:13;11.03;;;7.40;;
20621;SDS011;10470;42.670;23.354;2022-09-28T01:07:41;12.43;;;7.70;;
20621;SDS011;10470;42.670;23.354;2022-09-28T01:10:09;12.90;;;8.00;;
20621;SDS011;10470;42.670;23.354;2022-09-28T01:12:35;10.70;;;7.63;;
20621;SDS011;10470;42.670;23.354;2022-09-28T01:15:04;10.30;;;7.63;;
20621;SDS011;10470;42.670;23.354;2022-09-28T01:17:52;10.30;;;8.03;;
20621;SDS011;10470;42.670;23.354;2022-09-28T01:20:47;11.13;;;7.47;;
20621;SDS011;10470;42.670;23.354;2022-09-28T01:26:38;9.17;;;7.67;;
20621;SDS011;10470;42.670;23.354;2022-09-28T01:35:21;11.13;;;7.43;;
20621;SDS011;10470;42.670;23.354;2022-09-28T01:37:54;9.53;;;7.70;;
20621;SDS011;10470;42.670;23.354;2022-09-28T01:40:36;9.27;;;6.90;;
20621;SDS011;10470;42.670;23.354;2022-09-28T01:43:12;11.57;;;7.53;;
20621;SDS011;10470;42.670;23.354;2022-09-28T01:45:48;15.07;;;8.57;;
20621;SDS011;10470;42.670;23.354;2022-09-28T01:48:21;9.07;;;6.30;;
20621;SDS011;10470;42.670;23.354;2022-09-28T01:51:01;8.37;;;6.87;;
20621;SDS011;10470;42.670;23.354;2022-09-28T01:53:50;12.50;;;8.03;;
20621;SDS011;10470;42.670;23.354;2022-09-28T01:56:25;12.63;;;8.23;;
20621;SDS011;10470;42.670;23.354;2022-09-28T01:59:07;9.77;;;6.73;;
20621;SDS011;10470;42.670;23.354;2022-09-28T02:01:40;13.10;;;8.00;;
20621;SDS011;10470;42.670;23.354;2022-09-28T02:04:15;11.37;;;8.03;;
20621;SDS011;10470;42.670;23.354;2022-09-28T02:06:46;12.10;;;7.90;;
20621;SDS011;10470;42.670;23.354;2022-09-28T02:09:21;8.90;;;6.57;;
20621;SDS011;10470;42.670;23.354;2022-09-28T02:11:53;10.60;;;6.67;;
20621;SDS011;10470;42.670;23.354;2022-09-28T02:14:25;11.43;;;7.63;;
20621;SDS011;10470;42.670;23.354;2022-09-28T02:16:54;11.63;;;8.30;;
20621;SDS011;10470;42.670;23.354;2022-09-28T02:19:23;11.80;;;9.03;;
20621;SDS011;10470;42.670;23.354;2022-09-28T02:21:58;12.70;;;9.33;;
20621;SDS011;10470;42.670;23.354;2022-09-28T02:24:44;14.50;;;10.43;;
20621;SDS011;10470;42.670;23.354;2022-09-28T02:29:58;19.20;;;11.60;;
20621;SDS011;10470;42.670;23.354;2022-09-28T02:32:24;16.87;;;11.33;;
20621;SDS011;10470;42.670;23.354;2022-09-28T02:34:54;16.73;;;11.27;;
20621;SDS011;10470;42.670;23.354;2022-09-28T02:37:24;19.63;;;11.67;;
20621;SDS011;10470;42.670;23.354;2022-09-28T02:39:55;26.50;;;12.60;;
20621;SDS011;10470;42.670;23.354;2022-09-28T02:51:29;17.13;;;11.27;;
20621;SDS011;10470;42.670;23.354;2022-09-28T03:02:06;16.23;;;11.20;;
20621;SDS011;10470;42.670;23.354;2022-09-28T03:07:23;17.20;;;11.43;;
20621;SDS011;10470;42.670;23.354;2022-09-28T03:12:33;15.73;;;10.33;;
20621;SDS011;10470;42.670;23.354;2022-09-28T03:15:06;18.87;;;11.13;;
20621;SDS011;10470;42.670;23.354;2022-09-28T03:17:34;14.33;;;10.43;;
20621;SDS011;10470;42.670;23.354;2022-09-28T03:20:00;14.70;;;10.47;;
20621;SDS011;10470;42.670;23.354;2022-09-28T03:22:27;14.10;;;10.17;;
20621;SDS011;10470;42.670;23.354;2022-09-28T03:24:55;16.43;;;10.83;;
20621;SDS011;10470;42.670;23.354;2022-09-28T03:27:21;16.67;;;10.50;;
20621;SDS011;10470;42.670;23.354;2022-09-28T03:29:47;13.77;;;10.00;;
20621;SDS011;10470;42.670;23.354;2022-09-28T03:32:12;16.10;;;10.33;;
20621;SDS011;10470;42.670;23.354;2022-09-28T03:34:44;12.23;;;8.90;;
20621;SDS011;10470;42.670;23.354;2022-09-28T03:37:09;13.67;;;9.20;;
20621;SDS011;10470;42.670;23.354;2022-09-28T03:39:35;12.20;;;8.10;;
20621;SDS011;10470;42.670;23.354;2022-09-28T03:42:01;11.50;;;8.17;;
20621;SDS011;10470;42.670;23.354;2022-09-28T03:44:27;13.17;;;8.47;;
20621;SDS011;10470;42.670;23.354;2022-09-28T03:46:54;11.53;;;8.60;;
20621;SDS011;10470;42.670;23.354;2022-09-28T03:49:21;11.73;;;8.97;;
20621;SDS011;10470;42.670;23.354;2022-09-28T03:51:47;10.40;;;7.03;;
20621;SDS011;10470;42.670;23.354;2022-09-28T03:54:15;11.10;;;8.00;;
20621;SDS011;10470;42.670;23.354;2022-09-28T03:56:47;10.93;;;8.40;;
20621;SDS011;10470;42.670;23.354;2022-09-28T03:59:14;12.40;;;9.07;;
20621;SDS011;10470;42.670;23.354;2022-09-28T04:01:41;13.07;;;8.23;;
20621;SDS011;10470;42.670;23.354;2022-09-28T04:04:12;14.83;;;10.50;;
20621;SDS011;10470;42.670;23.354;2022-09-28T04:06:40;14.83;;;10.80;;
20621;SDS011;10470;42.670;23.354;2022-09-28T04:09:07;15.97;;;8.87;;
20621;SDS011;10470;42.670;23.354;2022-09-28T04:11:32;10.23;;;7.73;;
20621;SDS011;10470;42.670;23.354;2022-09-28T04:13:58;10.17;;;7.17;;
20621;SDS011;10470;42.670;23.354;2022-09-28T04:16:25;9.43;;;7.20;;
20621;SDS011;10470;42.670;23.354;2022-09-28T04:18:53;10.03;;;7.73;;
20621;SDS011;10470;42.670;23.354;2022-09-28T04:21:19;10.57;;;7.50;;
20621;SDS011;10470;42.670;23.354;2022-09-28T04:23:45;10.07;;;7.57;;
20621;SDS011;10470;42.670;23.354;2022-09-28T04:26:16;8.23;;;7.33;;
20621;SDS011;10470;42.670;23.354;2022-09-28T04:28:45;12.37;;;7.53;;
20621;SDS011;10470;42.670;23.354;2022-09-28T04:31:35;14.17;;;7.40;;
20621;SDS011;10470;42.670;23.354;2022-09-28T04:34:04;16.33;;;9.17;;
20621;SDS011;10470;42.670;23.354;2022-09-28T04:36:35;12.97;;;8.07;;
20621;SDS011;10470;42.670;23.354;2022-09-28T04:39:13;10.77;;;7.43;;
20621;SDS011;10470;42.670;23.354;2022-09-28T04:41:45;9.97;;;7.30;;
20621;SDS011;10470;42.670;23.354;2022-09-28T04:44:12;10.63;;;7.23;;
20621;SDS011;10470;42.670;23.354;2022-09-28T04:46:37;11.80;;;7.57;;
20621;SDS011;10470;42.670;23.354;2022-09-28T04:49:03;12.70;;;7.83;;
20621;SDS011;10470;42.670;23.354;2022-09-28T04:51:29;12.37;;;7.93;;
20621;SDS011;10470;42.670;23.354;2022-09-28T04:53:55;10.63;;;7.17;;
20621;SDS011;10470;42.670;23.354;2022-09-28T04:56:21;10.57;;;7.83;;
20621;SDS011;10470;42.670;23.354;2022-09-28T04:58:48;16.30;;;9.43;;
20621;SDS011;10470;42.670;23.354;2022-09-28T05:01:15;13.60;;;10.03;;
20621;SDS011;10470;42.670;23.354;2022-09-28T05:03:42;12.77;;;9.07;;
20621;SDS011;10470;42.670;23.354;2022-09-28T05:06:11;13.23;;;9.17;;
20621;SDS011;10470;42.670;23.354;2022-09-28T05:08:39;18.10;;;10.57;;
20621;SDS011;10470;42.670;23.354;2022-09-28T05:11:06;17.47;;;11.03;;
20621;SDS011;10470;42.670;23.354;2022-09-28T05:13:33;15.80;;;10.30;;
20621;SDS011;10470;42.670;23.354;2022-09-28T05:16:06;16.47;;;12.07;;
20621;SDS011;10470;42.670;23.354;2022-09-28T05:18:33;20.93;;;11.80;;
20621;SDS011;10470;42.670;23.354;2022-09-28T05:20:59;26.63;;;13.60;;
20621;SDS011;10470;42.670;23.354;2022-09-28T05:23:26;26.43;;;13.73;;
20621;SDS011;10470;42.670;23.354;2022-09-28T05:25:52;33.93;;;15.67;;
20621;SDS011;10470;42.670;23.354;2022-09-28T05:28:19;25.47;;;14.20;;
20621;SDS011;10470;42.670;23.354;2022-09-28T05:30:56;19.30;;;13.00;;
20621;SDS011;10470;42.670;23.354;2022-09-28T05:33:26;21.23;;;13.23;;
20621;SDS011;10470;42.670;23.354;2022-09-28T05:35:56;23.80;;;14.30;;
20621;SDS011;10470;42.670;23.354;2022-09-28T05:38:22;18.73;;;13.10;;
20621;SDS011;10470;42.670;23.354;2022-09-28T05:40:49;22.03;;;13.93;;
20621;SDS011;10470;42.670;23.354;2022-09-28T05:43:15;20.17;;;13.80;;
20621;SDS011;10470;42.670;23.354;2022-09-28T05:45:41;24.07;;;15.70;;
20621;SDS011;10470;42.670;23.354;2022-09-28T05:48:09;22.90;;;14.80;;
20621;SDS011;10470;42.670;23.354;2022-09-28T05:50:35;21.20;;;14.43;;
20621;SDS011;10470;42.670;23.354;2022-09-28T05:53:03;25.50;;;15.03;;
20621;SDS011;10470;42.670;23.354;2022-09-28T05:55:31;19.87;;;13.73;;
20621;SDS011;10470;42.670;23.354;2022-09-28T05:57:58;20.07;;;13.00;;
20621;SDS011;10470;42.670;23.354;2022-09-28T06:00:26;19.10;;;13.87;;
20621;SDS011;10470;42.670;23.354;2022-09-28T06:02:58;21.87;;;15.17;;
20621;SDS011;10470;42.670;23.354;2022-09-28T06:05:29;26.87;;;16.37;;
20621;SDS011;10470;42.670;23.354;2022-09-28T06:07:57;22.50;;;16.17;;
20621;SDS011;10470;42.670;23.354;2022-09-28T06:10:25;27.63;;;16.07;;
20621;SDS011;10470;42.670;23.354;2022-09-28T06:12:53;25.33;;;17.03;;
20621;SDS011;10470;42.670;23.354;2022-09-28T06:15:23;24.83;;;17.47;;
20621;SDS011;10470;42.670;23.354;2022-09-28T06:20:24;28.73;;;18.07;;
20621;SDS011;10470;42.670;23.354;2022-09-28T06:22:55;26.87;;;17.50;;
20621;SDS011;10470;42.670;23.354;2022-09-28T06:25:22;28.80;;;18.17;;
20621;SDS011;10470;42.670;23.354;2022-09-28T06:28:08;25.90;;;17.27;;
20621;SDS011;10470;42.670;23.354;2022-09-28T06:30:36;27.03;;;17.37;;
20621;SDS011;10470;42.670;23.354;2022-09-28T06:33:02;25.37;;;17.30;;
20621;SDS011;10470;42.670;23.354;2022-09-28T06:35:31;28.83;;;18.40;;
20621;SDS011;10470;42.670;23.354;2022-09-28T06:37:59;27.97;;;17.97;;
20621;SDS011;10470;42.670;23.354;2022-09-28T06:40:26;25.23;;;16.37;;
20621;SDS011;10470;42.670;23.354;2022-09-28T06:42:54;26.03;;;16.50;;
20621;SDS011;10470;42.670;23.354;2022-09-28T06:45:27;28.37;;;18.83;;
20621;SDS011;10470;42.670;23.354;2022-09-28T06:47:58;26.10;;;17.17;;
20621;SDS011;10470;42.670;23.354;2022-09-28T06:50:32;28.50;;;19.30;;
20621;SDS011;10470;42.670;23.354;2022-09-28T06:53:03;28.73;;;17.87;;
20621;SDS011;10470;42.670;23.354;2022-09-28T06:55:32;28.37;;;17.73;;
20621;SDS011;10470;42.670;23.354;2022-09-28T06:57:59;25.77;;;16.13;;
20621;SDS011;10470;42.670;23.354;2022-09-28T07:00:29;25.53;;;15.73;;
20621;SDS011;10470;42.670;23.354;2022-09-28T07:02:58;21.93;;;14.23;;
20621;SDS011;10470;42.670;23.354;2022-09-28T07:05:26;22.27;;;14.30;;
20621;SDS011;10470;42.670;23.354;2022-09-28T07:07:53;23.23;;;14.30;;
20621;SDS011;10470;42.670;23.354;2022-09-28T07:10:23;21.93;;;14.83;;
20621;SDS011;10470;42.670;23.354;2022-09-28T07:12:52;24.63;;;15.43;;
20621;SDS011;10470;42.670;23.354;2022-09-28T07:15:21;27.60;;;16.97;;
20621;SDS011;10470;42.670;23.354;2022-09-28T07:17:49;28.93;;;17.57;;
20621;SDS011;10470;42.670;23.354;2022-09-28T07:20:21;25.73;;;16.10;;
20621;SDS011;10470;42.670;23.354;2022-09-28T07:22:53;25.00;;;16.43;;
20621;SDS011;10470;42.670;23.354;2022-09-28T07:25:20;31.17;;;17.80;;
20621;SDS011;10470;42.670;23.354;2022-09-28T07:27:48;31.90;;;18.17;;
20621;SDS011;10470;42.670;23.354;2022-09-28T07:30:14;28.87;;;17.07;;
20621;SDS011;10470;42.670;23.354;2022-09-28T07:32:40;29.10;;;17.00;;
20621;SDS011;10470;42.670;23.354;2022-09-28T07:35:07;26.87;;;16.13;;
20621;SDS011;10470;42.670;23.354;2022-09-28T07:37:35;25.70;;;15.43;;
20621;SDS011;10470;42.670;23.354;2022-09-28T07:40:06;25.10;;;15.37;;
20621;SDS011;10470;42.670;23.354;2022-09-28T07:42:52;24.53;;;15.60;;
20621;SDS011;10470;42.670;23.354;2022-09-28T07:45:18;24.80;;;15.67;;
20621;SDS011;10470;42.670;23.354;2022-09-28T07:47:48;20.50;;;14.23;;
20621;SDS011;10470;42.670;23.354;2022-09-28T07:50:15;22.63;;;13.80;;
20621;SDS011;10470;42.670;23.354;2022-09-28T07:52:43;22.00;;;13.80;;
20621;SDS011;10470;42.670;23.354;2022-09-28T07:55:12;18.63;;;12.87;;
20621;SDS011;10470;42.670;23.354;2022-09-28T07:57:37;18.07;;;12.17;;
20621;SDS011;10470;42.670;23.354;2022-09-28T08:00:05;17.93;;;12.37;;
20621;SDS011;10470;42.670;23.354;2022-09-28T08:02:33;17.03;;;12.20;;
20621;SDS011;10470;42.670;23.354;2022-09-28T08:05:03;19.33;;;11.80;;
20621;SDS011;10470;42.670;23.354;2022-09-28T08:07:29;19.07;;;12.13;;
20621;SDS011;10470;42.670;23.354;2022-09-28T08:10:00;14.27;;;9.13;;
20621;SDS011;10470;42.670;23.354;2022-09-28T08:12:28;18.33;;;10.50;;
20621;SDS011;10470;42.670;23.354;2022-09-28T08:14:55;15.37;;;10.00;;
20621;SDS011;10470;42.670;23.354;2022-09-28T08:17:27;18.93;;;9.50;;
20621;SDS011;10470;42.670;23.354;2022-09-28T08:19:54;10.60;;;8.13;;
20621;SDS011;10470;42.670;23.354;2022-09-28T08:22:41;12.37;;;8.67;;
20621;SDS011;10470;42.670;23.354;2022-09-28T08:25:08;10.03;;;8.37;;
20621;SDS011;10470;42.670;23.354;2022-09-28T08:27:35;9.33;;;6.40;;
20621;SDS011;10470;42.670;23.354;2022-09-28T08:30:05;8.47;;;5.60;;
20621;SDS011;10470;42.670;23.354;2022-09-28T08:32:34;9.70;;;5.47;;
20621;SDS011;10470;42.670;23.354;2022-09-28T08:35:00;7.33;;;5.10;;
20621;SDS011;10470;42.670;23.354;2022-09-28T08:37:26;6.50;;;5.40;;
20621;SDS011;10470;42.670;23.354;2022-09-28T08:39:52;10.73;;;5.60;;
20621;SDS011;10470;42.670;23.354;2022-09-28T08:45:05;10.77;;;4.93;;
20621;SDS011;10470;42.670;23.354;2022-09-28T08:47:55;7.90;;;4.57;;
20621;SDS011;10470;42.670;23.354;2022-09-28T08:50:59;8.47;;;4.00;;
20621;SDS011;10470;42.670;23.354;2022-09-28T08:53:39;6.10;;;3.83;;
20621;SDS011;10470;42.670;23.354;2022-09-28T08:56:09;7.10;;;3.80;;
20621;SDS011;10470;42.670;23.354;2022-09-28T08:58:43;6.03;;;3.97;;
20621;SDS011;10470;42.670;23.354;2022-09-28T09:01:15;6.53;;;3.60;;
20621;SDS011;10470;42.670;23.354;2022-09-28T09:03:43;7.97;;;4.33;;
20621;SDS011;10470;42.670;23.354;2022-09-28T09:06:17;8.43;;;4.57;;
20621;SDS011;10470;42.670;23.354;2022-09-28T09:12:21;9.37;;;5.17;;
20621;SDS011;10470;42.670;23.354;2022-09-28T09:15:15;9.57;;;4.83;;
20621;SDS011;10470;42.670;23.354;2022-09-28T09:23:30;8.70;;;4.40;;
20621;SDS011;10470;42.670;23.354;2022-09-28T09:26:12;6.60;;;3.40;;
20621;SDS011;10470;42.670;23.354;2022-09-28T09:33:50;6.03;;;3.00;;
20621;SDS011;10470;42.670;23.354;2022-09-28T09:42:19;5.67;;;3.67;;
20621;SDS011;10470;42.670;23.354;2022-09-28T09:45:13;5.20;;;2.93;;
20621;SDS011;10470;42.670;23.354;2022-09-28T09:47:52;5.10;;;2.67;;
20621;SDS011;10470;42.670;23.354;2022-09-28T09:50:32;4.73;;;2.90;;
20621;SDS011;10470;42.670;23.354;2022-09-28T09:53:16;5.97;;;3.30;;
20621;SDS011;10470;42.670;23.354;2022-09-28T09:55:51;4.83;;;2.87;;
20621;SDS011;10470;42.670;23.354;2022-09-28T09:58:24;7.67;;;2.80;;
20621;SDS011;10470;42.670;23.354;2022-09-28T10:00:55;3.40;;;2.90;;
20621;SDS011;10470;42.670;23.354;2022-09-28T10:03:31;4.30;;;2.60;;
20621;SDS011;10470;42.670;23.354;2022-09-28T10:06:04;7.47;;;2.20;;
20621;SDS011;10470;42.670;23.354;2022-09-28T10:09:00;3.37;;;2.43;;
20621;SDS011;10470;42.670;23.354;2022-09-28T10:11:32;3.13;;;2.30;;
20621;SDS011;10470;42.670;23.354;2022-09-28T10:14:05;3.90;;;2.10;;
20621;SDS011;10470;42.670;23.354;2022-09-28T10:16:38;3.50;;;2.10;;
20621;SDS011;10470;42.670;23.354;2022-09-28T10:19:11;4.50;;;1.97;;
20621;SDS011;10470;42.670;23.354;2022-09-28T10:21:39;3.93;;;2.27;;
20621;SDS011;10470;42.670;23.354;2022-09-28T10:24:25;2.97;;;2.17;;
20621;SDS011;10470;42.670;23.354;2022-09-28T10:27:10;2.33;;;1.80;;
20621;SDS011;10470;42.670;23.354;2022-09-28T10:32:36;4.30;;;2.20;;
20621;SDS011;10470;42.670;23.354;2022-09-28T10:37:46;5.83;;;2.20;;
20621;SDS011;10470;42.670;23.354;2022-09-28T10:40:24;2.47;;;1.90;;
20621;SDS011;10470;42.670;23.354;2022-09-28T10:43:01;2.47;;;1.60;;
20621;SDS011;10470;42.670;23.354;2022-09-28T10:45:35;3.37;;;1.60;;
20621;SDS011;10470;42.670;23.354;2022-09-28T10:48:05;2.47;;;1.60;;
20621;SDS011;10470;42.670;23.354;2022-09-28T10:50:41;1.60;;;1.43;;
20621;SDS011;10470;42.670;23.354;2022-09-28T10:53:21;3.10;;;1.70;;
20621;SDS011;10470;42.670;23.354;2022-09-28T10:58:36;1.40;;;1.30;;
20621;SDS011;10470;42.670;23.354;2022-09-28T11:01:05;3.93;;;2.33;;
20621;SDS011;10470;42.670;23.354;2022-09-28T11:03:39;2.50;;;1.53;;
20621;SDS011;10470;42.670;23.354;2022-09-28T11:06:14;2.87;;;1.90;;
20621;SDS011;10470;42.670;23.354;2022-09-28T11:08:41;3.20;;;1.57;;
20621;SDS011;10470;42.670;23.354;2022-09-28T11:11:09;3.00;;;1.30;;
20621;SDS011;10470;42.670;23.354;2022-09-28T11:13:49;2.60;;;1.83;;
20621;SDS011;10470;42.670;23.354;2022-09-28T11:16:24;3.97;;;1.70;;
20621;SDS011;10470;42.670;23.354;2022-09-28T11:19:03;2.53;;;1.60;;
20621;SDS011;10470;42.670;23.354;2022-09-28T11:21:39;3.07;;;2.07;;
20621;SDS011;10470;42.670;23.354;2022-09-28T11:26:42;2.43;;;1.93;;
20621;SDS011;10470;42.670;23.354;2022-09-28T11:32:01;3.13;;;1.50;;
20621;SDS011;10470;42.670;23.354;2022-09-28T11:34:32;3.13;;;1.50;;
20621;SDS011;10470;42.670;23.354;2022-09-28T11:37:08;1.63;;;1.33;;
20621;SDS011;10470;42.670;23.354;2022-09-28T11:43:05;6.23;;;1.87;;
20621;SDS011;10470;42.670;23.354;2022-09-28T11:45:52;3.10;;;1.90;;
20621;SDS011;10470;42.670;23.354;2022-09-28T11:48:38;5.47;;;1.60;;
20621;SDS011;10470;42.670;23.354;2022-09-28T11:51:10;1.63;;;1.40;;
20621;SDS011;10470;42.670;23.354;2022-09-28T11:53:49;1.83;;;1.40;;
20621;SDS011;10470;42.670;23.354;2022-09-28T12:01:37;2.20;;;1.63;;
20621;SDS011;10470;42.670;23.354;2022-09-28T12:04:11;3.43;;;1.60;;
20621;SDS011;10470;42.670;23.354;2022-09-28T12:06:49;7.03;;;1.80;;
20621;SDS011;10470;42.670;23.354;2022-09-28T12:09:45;1.87;;;1.53;;
20621;SDS011;10470;42.670;23.354;2022-09-28T12:12:38;2.53;;;1.30;;
20621;SDS011;10470;42.670;23.354;2022-09-28T12:15:24;1.93;;;1.70;;
20621;SDS011;10470;42.670;23.354;2022-09-28T12:23:41;3.27;;;1.70;;
20621;SDS011;10470;42.670;23.354;2022-09-28T12:26:53;1.43;;;1.33;;
20621;SDS011;10470;42.670;23.354;2022-09-28T12:29:16;2.63;;;1.70;;
20621;SDS011;10470;42.670;23.354;2022-09-28T12:34:34;8.30;;;2.10;;
20621;SDS011;10470;42.670;23.354;2022-09-28T12:37:07;3.60;;;1.90;;
20621;SDS011;10470;42.670;23.354;2022-09-28T12:40:14;3.10;;;1.83;;
20621;SDS011;10470;42.670;23.354;2022-09-28T12:45:33;3.33;;;1.40;;
20621;SDS011;10470;42.670;23.354;2022-09-28T12:50:54;4.53;;;1.90;;
20621;SDS011;10470;42.670;23.354;2022-09-28T12:53:55;4.20;;;1.77;;
20621;SDS011;10470;42.670;23.354;2022-09-28T12:59:31;2.67;;;1.70;;
20621;SDS011;10470;42.670;23.354;2022-09-28T13:07:58;2.60;;;1.83;;
20621;SDS011;10470;42.670;23.354;2022-09-28T13:10:36;3.50;;;1.80;;
20621;SDS011;10470;42.670;23.354;2022-09-28T13:15:47;1.63;;;1.40;;
20621;SDS011;10470;42.670;23.354;2022-09-28T13:18:34;2.40;;;1.17;;
20621;SDS011;10470;42.670;23.354;2022-09-28T13:21:24;1.97;;;1.17;;
20621;SDS011;10470;42.670;23.354;2022-09-28T13:24:11;3.17;;;1.33;;
20621;SDS011;10470;42.670;23.354;2022-09-28T13:26:52;1.60;;;1.50;;
20621;SDS011;10470;42.670;23.354;2022-09-28T13:29:25;2.33;;;1.40;;
20621;SDS011;10470;42.670;23.354;2022-09-28T13:31:54;2.77;;;1.20;;
20621;SDS011;10470;42.670;23.354;2022-09-28T13:34:26;2.07;;;1.20;;
20621;SDS011;10470;42.670;23.354;2022-09-28T13:57:02;2.07;;;1.50;;
20621;SDS011;10470;42.670;23.354;2022-09-28T14:04:56;3.80;;;1.27;;
20621;SDS011;10470;42.670;23.354;2022-09-28T14:12:44;2.20;;;1.40;;
20621;SDS011;10470;42.670;23.354;2022-09-28T14:20:40;2.87;;;1.50;;
20621;SDS011;10470;42.670;23.354;2022-09-28T14:23:22;1.97;;;1.30;;
20621;SDS011;10470;42.670;23.354;2022-09-28T14:29:28;2.30;;;1.07;;
20621;SDS011;10470;42.670;23.354;2022-09-28T14:34:45;1.20;;;1.10;;
20621;SDS011;10470;42.670;23.354;2022-09-28T14:37:21;2.20;;;1.00;;
20621;SDS011;10470;42.670;23.354;2022-09-28T14:40:22;2.27;;;0.80;;
20621;SDS011;10470;42.670;23.354;2022-09-28T14:43:19;3.13;;;1.00;;
20621;SDS011;10470;42.670;23.354;2022-09-28T14:48:49;4.93;;;1.37;;
20621;SDS011;10470;42.670;23.354;2022-09-28T14:53:53;3.63;;;1.57;;
20621;SDS011;10470;42.670;23.354;2022-09-28T14:56:26;1.97;;;1.20;;
20621;SDS011;10470;42.670;23.354;2022-09-28T14:58:56;3.10;;;1.57;;
20621;SDS011;10470;42.670;23.354;2022-09-28T15:01:22;2.23;;;1.50;;
20621;SDS011;10470;42.670;23.354;2022-09-28T15:03:51;3.63;;;1.70;;
20621;SDS011;10470;42.670;23.354;2022-09-28T15:06:22;4.13;;;1.70;;
20621;SDS011;10470;42.670;23.354;2022-09-28T15:08:53;5.27;;;1.63;;
20621;SDS011;10470;42.670;23.354;2022-09-28T15:11:23;2.63;;;1.30;;
20621;SDS011;10470;42.670;23.354;2022-09-28T15:14:03;2.33;;;1.70;;
20621;SDS011;10470;42.670;23.354;2022-09-28T15:16:35;4.43;;;1.80;;
20621;SDS011;10470;42.670;23.354;2022-09-28T15:21:38;4.87;;;1.50;;
20621;SDS011;10470;42.670;23.354;2022-09-28T15:26:53;1.17;;;1.10;;
20621;SDS011;10470;42.670;23.354;2022-09-28T15:29:19;1.67;;;1.33;;
20621;SDS011;10470;42.670;23.354;2022-09-28T15:31:47;2.17;;;1.20;;
20621;SDS011;10470;42.670;23.354;2022-09-28T15:34:33;2.00;;;1.30;;
20621;SDS011;10470;42.670;23.354;2022-09-28T15:37:36;3.77;;;1.33;;
20621;SDS011;10470;42.670;23.354;2022-09-28T15:40:07;1.67;;;1.00;;
20621;SDS011;10470;42.670;23.354;2022-09-28T15:42:42;1.37;;;1.20;;
20621;SDS011;10470;42.670;23.354;2022-09-28T15:47:38;4.20;;;1.50;;
20621;SDS011;10470;42.670;23.354;2022-09-28T15:52:59;4.77;;;1.57;;
20621;SDS011;10470;42.670;23.354;2022-09-28T15:55:28;2.77;;;1.57;;
20621;SDS011;10470;42.670;23.354;2022-09-28T15:58:14;4.13;;;1.77;;
20621;SDS011;10470;42.670;23.354;2022-09-28T16:00:42;3.40;;;2.03;;
20621;SDS011;10470;42.670;23.354;2022-09-28T16:13:56;5.20;;;2.20;;
20621;SDS011;10470;42.670;23.354;2022-09-28T16:16:37;3.87;;;2.50;;
20621;SDS011;10470;42.670;23.354;2022-09-28T16:21:55;4.33;;;1.60;;
20621;SDS011;10470;42.670;23.354;2022-09-28T16:24:27;3.77;;;1.30;;
20621;SDS011;10470;42.670;23.354;2022-09-28T16:27:05;3.17;;;1.43;;
20621;SDS011;10470;42.670;23.354;2022-09-28T16:29:39;2.23;;;1.07;;
20621;SDS011;10470;42.670;23.354;2022-09-28T16:34:51;4.07;;;1.67;;
20621;SDS011;10470;42.670;23.354;2022-09-28T16:37:40;3.93;;;1.33;;
20621;SDS011;10470;42.670;23.354;2022-09-28T16:40:11;2.47;;;1.20;;
20621;SDS011;10470;42.670;23.354;2022-09-28T16:42:39;3.50;;;1.67;;
20621;SDS011;10470;42.670;23.354;2022-09-28T16:45:08;3.87;;;1.40;;
20621;SDS011;10470;42.670;23.354;2022-09-28T16:47:43;3.37;;;1.70;;
20621;SDS011;10470;42.670;23.354;2022-09-28T16:50:09;3.00;;;2.13;;
20621;SDS011;10470;42.670;23.354;2022-09-28T16:52:40;2.10;;;1.67;;
20621;SDS011;10470;42.670;23.354;2022-09-28T16:55:24;1.97;;;1.10;;
20621;SDS011;10470;42.670;23.354;2022-09-28T16:57:51;1.70;;;1.20;;
20621;SDS011;10470;42.670;23.354;2022-09-28T17:00:24;10.50;;;2.63;;
20621;SDS011;10470;42.670;23.354;2022-09-28T17:02:51;3.43;;;1.70;;
20621;SDS011;10470;42.670;23.354;2022-09-28T17:05:18;3.73;;;1.60;;
20621;SDS011;10470;42.670;23.354;2022-09-28T17:07:48;3.73;;;1.90;;
20621;SDS011;10470;42.670;23.354;2022-09-28T17:10:34;3.67;;;2.03;;
20621;SDS011;10470;42.670;23.354;2022-09-28T17:13:04;4.27;;;2.27;;
20621;SDS011;10470;42.670;23.354;2022-09-28T17:15:30;4.23;;;2.20;;
20621;SDS011;10470;42.670;23.354;2022-09-28T17:17:56;5.03;;;2.70;;
20621;SDS011;10470;42.670;23.354;2022-09-28T17:20:25;5.00;;;2.33;;
20621;SDS011;10470;42.670;23.354;2022-09-28T17:22:54;4.93;;;2.60;;
20621;SDS011;10470;42.670;23.354;2022-09-28T17:25:20;3.57;;;2.67;;
20621;SDS011;10470;42.670;23.354;2022-09-28T17:27:49;3.93;;;2.30;;
20621;SDS011;10470;42.670;23.354;2022-09-28T17:30:15;5.60;;;2.00;;
20621;SDS011;10470;42.670;23.354;2022-09-28T17:32:42;4.70;;;2.43;;
20621;SDS011;10470;42.670;23.354;2022-09-28T17:35:12;5.87;;;2.80;;
20621;SDS011;10470;42.670;23.354;2022-09-28T17:37:42;5.27;;;2.70;;
20621;SDS011;10470;42.670;23.354;2022-09-28T17:42:37;5.13;;;2.70;;
20621;SDS011;10470;42.670;23.354;2022-09-28T17:45:03;6.23;;;3.23;;
20621;SDS011;10470;42.670;23.354;2022-09-28T17:47:29;4.97;;;3.10;;
20621;SDS011;10470;42.670;23.354;2022-09-28T17:49:56;7.93;;;3.10;;
20621;SDS011;10470;42.670;23.354;2022-09-28T17:52:24;4.90;;;2.67;;
20621;SDS011;10470;42.670;23.354;2022-09-28T17:54:50;5.70;;;3.70;;
20621;SDS011;10470;42.670;23.354;2022-09-28T17:57:17;9.10;;;4.60;;
20621;SDS011;10470;42.670;23.354;2022-09-28T17:59:44;8.23;;;4.00;;